If you wish to contribute or participate in the discussions about articles you are invited to join SKYbrary as a registered user

 Actions

El Plumerillo Airport

From SKYbrary Wiki

SAME
Airport
ICAO: SAME – IATA: MDZ
Summary
Name El Plumerillo Airport
Region South America and Caribbean
Territory Argentina AR.gif
Location Mendoza, Mendoza
Serving Mendoza
Elevation 704.088 m
2,310 ft
2,310 ft704.088 m
Type medium airport
Coordinates 32° 49' 54.18" S, 68° 47' 34.28" W
Runways
Designator Length Width Surface ROPS
18/36 2835 m9,301.181 ft
54 m177.165 ft
CON no/no


METAR
Observation SAME 182300Z 00000KT CAVOK 21/M05 Q1000
Station Mendoza Aerodrome
Date/Time 18 September 2019 23:00:00
Wind direction
Wind speed 00 kts
Lowest cloud amount clouds and visibility OK
Temperature 21°C
Dew point
Humidity 16%
QNH 1000 hPa
Weather condition n/a

Airport 5nm 9,260 m
9.26 km
30,380.577 ft
northeast of the city of Mendoza, Argentina.

Climatology

Cold desert climate (Köppen climate classification BWk).

Maps

Terrain

Loading map...

Airport Layout

Loading map...


Accidents & Serious Incidents at or in vicinity of SAME

None on SKYbrary